sensor_id;sensor_type;location;lat;lon;timestamp;P1;durP1;ratioP1;P2;durP2;ratioP2
1370;SDS011;14306;49.942;11.570;2022-09-28T00:02:11;3.60;;;2.60;;
1370;SDS011;14306;49.942;11.570;2022-09-28T00:04:40;3.33;;;2.33;;
1370;SDS011;14306;49.942;11.570;2022-09-28T00:07:08;3.00;;;2.80;;
1370;SDS011;14306;49.942;11.570;2022-09-28T00:09:37;4.03;;;2.80;;
1370;SDS011;14306;49.942;11.570;2022-09-28T00:12:05;3.63;;;3.03;;
1370;SDS011;14306;49.942;11.570;2022-09-28T00:14:33;8.83;;;4.00;;
1370;SDS011;14306;49.942;11.570;2022-09-28T00:17:02;5.60;;;3.40;;
1370;SDS011;14306;49.942;11.570;2022-09-28T00:19:30;6.33;;;3.70;;
1370;SDS011;14306;49.942;11.570;2022-09-28T00:21:59;5.60;;;3.70;;
1370;SDS011;14306;49.942;11.570;2022-09-28T00:24:27;2.90;;;2.50;;
1370;SDS011;14306;49.942;11.570;2022-09-28T00:26:57;3.83;;;2.83;;
1370;SDS011;14306;49.942;11.570;2022-09-28T00:29:28;3.97;;;2.00;;
1370;SDS011;14306;49.942;11.570;2022-09-28T00:31:58;7.70;;;3.10;;
1370;SDS011;14306;49.942;11.570;2022-09-28T00:34:29;4.20;;;2.93;;
1370;SDS011;14306;49.942;11.570;2022-09-28T00:37:00;4.10;;;2.93;;
1370;SDS011;14306;49.942;11.570;2022-09-28T00:39:29;6.43;;;3.13;;
1370;SDS011;14306;49.942;11.570;2022-09-28T00:41:59;6.10;;;3.30;;
1370;SDS011;14306;49.942;11.570;2022-09-28T00:44:33;3.50;;;3.20;;
1370;SDS011;14306;49.942;11.570;2022-09-28T00:47:08;4.77;;;3.43;;
1370;SDS011;14306;49.942;11.570;2022-09-28T00:50:06;3.10;;;2.73;;
1370;SDS011;14306;49.942;11.570;2022-09-28T00:52:41;4.50;;;3.40;;
1370;SDS011;14306;49.942;11.570;2022-09-28T00:55:16;6.20;;;3.90;;
1370;SDS011;14306;49.942;11.570;2022-09-28T00:57:49;4.13;;;3.60;;
1370;SDS011;14306;49.942;11.570;2022-09-28T01:00:20;6.07;;;5.10;;
1370;SDS011;14306;49.942;11.570;2022-09-28T01:02:49;5.63;;;3.37;;
1370;SDS011;14306;49.942;11.570;2022-09-28T01:05:18;5.20;;;3.70;;
1370;SDS011;14306;49.942;11.570;2022-09-28T01:07:48;7.53;;;3.43;;
1370;SDS011;14306;49.942;11.570;2022-09-28T01:10:17;5.67;;;3.87;;
1370;SDS011;14306;49.942;11.570;2022-09-28T01:12:45;6.17;;;4.00;;
1370;SDS011;14306;49.942;11.570;2022-09-28T01:15:15;6.43;;;3.37;;
1370;SDS011;14306;49.942;11.570;2022-09-28T01:17:49;5.23;;;3.73;;
1370;SDS011;14306;49.942;11.570;2022-09-28T01:20:31;4.40;;;3.23;;
1370;SDS011;14306;49.942;11.570;2022-09-28T01:29:36;6.00;;;4.63;;
1370;SDS011;14306;49.942;11.570;2022-09-28T01:32:15;4.47;;;4.07;;
1370;SDS011;14306;49.942;11.570;2022-09-28T01:34:52;9.03;;;3.80;;
1370;SDS011;14306;49.942;11.570;2022-09-28T01:37:27;4.73;;;4.23;;
1370;SDS011;14306;49.942;11.570;2022-09-28T01:40:01;4.37;;;3.97;;
1370;SDS011;14306;49.942;11.570;2022-09-28T01:42:34;10.70;;;4.83;;
1370;SDS011;14306;49.942;11.570;2022-09-28T01:45:06;9.17;;;4.00;;
1370;SDS011;14306;49.942;11.570;2022-09-28T01:47:40;5.77;;;4.13;;
1370;SDS011;14306;49.942;11.570;2022-09-28T01:50:13;7.63;;;3.70;;
1370;SDS011;14306;49.942;11.570;2022-09-28T01:52:45;4.53;;;4.13;;
1370;SDS011;14306;49.942;11.570;2022-09-28T01:55:22;5.67;;;4.67;;
1370;SDS011;14306;49.942;11.570;2022-09-28T01:57:55;3.80;;;3.40;;
1370;SDS011;14306;49.942;11.570;2022-09-28T02:00:28;5.60;;;3.90;;
1370;SDS011;14306;49.942;11.570;2022-09-28T02:02:58;8.03;;;4.63;;
1370;SDS011;14306;49.942;11.570;2022-09-28T02:05:32;9.13;;;4.30;;
1370;SDS011;14306;49.942;11.570;2022-09-28T02:08:04;6.13;;;4.83;;
1370;SDS011;14306;49.942;11.570;2022-09-28T02:10:37;5.80;;;4.77;;
1370;SDS011;14306;49.942;11.570;2022-09-28T02:13:09;7.67;;;5.10;;
1370;SDS011;14306;49.942;11.570;2022-09-28T02:15:47;7.00;;;5.00;;
1370;SDS011;14306;49.942;11.570;2022-09-28T02:18:20;7.00;;;4.90;;
1370;SDS011;14306;49.942;11.570;2022-09-28T02:20:51;5.90;;;4.50;;
1370;SDS011;14306;49.942;11.570;2022-09-28T02:23:24;11.30;;;4.80;;
1370;SDS011;14306;49.942;11.570;2022-09-28T02:25:57;6.70;;;4.80;;
1370;SDS011;14306;49.942;11.570;2022-09-28T02:28:28;12.13;;;6.07;;
1370;SDS011;14306;49.942;11.570;2022-09-28T02:30:59;7.57;;;4.80;;
1370;SDS011;14306;49.942;11.570;2022-09-28T02:33:28;10.17;;;4.90;;
1370;SDS011;14306;49.942;11.570;2022-09-28T02:36:00;8.43;;;5.13;;
1370;SDS011;14306;49.942;11.570;2022-09-28T02:38:30;7.10;;;4.30;;
1370;SDS011;14306;49.942;11.570;2022-09-28T02:41:01;6.30;;;4.70;;
1370;SDS011;14306;49.942;11.570;2022-09-28T02:43:33;7.03;;;4.83;;
1370;SDS011;14306;49.942;11.570;2022-09-28T02:46:13;7.80;;;5.00;;
1370;SDS011;14306;49.942;11.570;2022-09-28T02:48:53;15.83;;;5.07;;
1370;SDS011;14306;49.942;11.570;2022-09-28T02:55:00;5.00;;;4.23;;
1370;SDS011;14306;49.942;11.570;2022-09-28T02:57:45;7.40;;;4.60;;
1370;SDS011;14306;49.942;11.570;2022-09-28T03:00:22;6.90;;;4.63;;
1370;SDS011;14306;49.942;11.570;2022-09-28T03:02:55;6.60;;;4.60;;
1370;SDS011;14306;49.942;11.570;2022-09-28T03:05:30;6.33;;;4.60;;
1370;SDS011;14306;49.942;11.570;2022-09-28T03:08:03;6.03;;;4.40;;
1370;SDS011;14306;49.942;11.570;2022-09-28T03:10:39;7.77;;;4.17;;
1370;SDS011;14306;49.942;11.570;2022-09-28T03:13:11;5.23;;;3.27;;
1370;SDS011;14306;49.942;11.570;2022-09-28T03:15:42;9.43;;;4.13;;
1370;SDS011;14306;49.942;11.570;2022-09-28T03:18:15;6.70;;;4.30;;
1370;SDS011;14306;49.942;11.570;2022-09-28T03:20:43;10.13;;;3.97;;
1370;SDS011;14306;49.942;11.570;2022-09-28T03:23:12;4.20;;;3.80;;
1370;SDS011;14306;49.942;11.570;2022-09-28T03:25:56;9.43;;;4.70;;
1370;SDS011;14306;49.942;11.570;2022-09-28T03:28:24;10.70;;;4.60;;
1370;SDS011;14306;49.942;11.570;2022-09-28T03:30:53;8.23;;;3.97;;
1370;SDS011;14306;49.942;11.570;2022-09-28T03:33:25;7.87;;;4.20;;
1370;SDS011;14306;49.942;11.570;2022-09-28T03:35:53;4.70;;;3.70;;
1370;SDS011;14306;49.942;11.570;2022-09-28T03:38:21;6.00;;;3.63;;
1370;SDS011;14306;49.942;11.570;2022-09-28T03:40:52;5.00;;;3.50;;
1370;SDS011;14306;49.942;11.570;2022-09-28T03:43:20;8.63;;;3.03;;
1370;SDS011;14306;49.942;11.570;2022-09-28T03:45:52;7.60;;;3.30;;
1370;SDS011;14306;49.942;11.570;2022-09-28T03:48:21;7.83;;;3.60;;
1370;SDS011;14306;49.942;11.570;2022-09-28T03:50:58;6.67;;;3.40;;
1370;SDS011;14306;49.942;11.570;2022-09-28T03:53:27;7.27;;;4.03;;
1370;SDS011;14306;49.942;11.570;2022-09-28T03:56:00;4.13;;;2.60;;
1370;SDS011;14306;49.942;11.570;2022-09-28T03:58:29;7.20;;;3.13;;
1370;SDS011;14306;49.942;11.570;2022-09-28T04:01:00;5.53;;;2.83;;
1370;SDS011;14306;49.942;11.570;2022-09-28T04:03:29;5.87;;;2.93;;
1370;SDS011;14306;49.942;11.570;2022-09-28T04:05:58;8.83;;;3.10;;
1370;SDS011;14306;49.942;11.570;2022-09-28T04:08:27;9.00;;;3.00;;
1370;SDS011;14306;49.942;11.570;2022-09-28T04:10:55;9.27;;;3.67;;
1370;SDS011;14306;49.942;11.570;2022-09-28T04:13:23;7.40;;;2.77;;
1370;SDS011;14306;49.942;11.570;2022-09-28T04:15:52;4.67;;;3.27;;
1370;SDS011;14306;49.942;11.570;2022-09-28T04:18:21;4.63;;;3.30;;
1370;SDS011;14306;49.942;11.570;2022-09-28T04:20:56;4.70;;;3.13;;
1370;SDS011;14306;49.942;11.570;2022-09-28T04:23:32;6.80;;;3.57;;
1370;SDS011;14306;49.942;11.570;2022-09-28T04:26:01;5.23;;;3.27;;
1370;SDS011;14306;49.942;11.570;2022-09-28T04:28:29;8.03;;;3.90;;
1370;SDS011;14306;49.942;11.570;2022-09-28T04:31:15;5.03;;;3.80;;
1370;SDS011;14306;49.942;11.570;2022-09-28T04:33:44;9.00;;;4.17;;
1370;SDS011;14306;49.942;11.570;2022-09-28T04:36:13;12.63;;;3.70;;
1370;SDS011;14306;49.942;11.570;2022-09-28T04:38:41;5.13;;;4.00;;
1370;SDS011;14306;49.942;11.570;2022-09-28T04:41:24;5.03;;;3.80;;
1370;SDS011;14306;49.942;11.570;2022-09-28T04:43:53;3.33;;;3.03;;
1370;SDS011;14306;49.942;11.570;2022-09-28T04:46:21;14.80;;;5.07;;
1370;SDS011;14306;49.942;11.570;2022-09-28T04:48:49;7.47;;;4.80;;
1370;SDS011;14306;49.942;11.570;2022-09-28T04:51:18;7.10;;;4.17;;
1370;SDS011;14306;49.942;11.570;2022-09-28T04:53:45;7.53;;;4.73;;
1370;SDS011;14306;49.942;11.570;2022-09-28T04:56:13;8.60;;;4.63;;
1370;SDS011;14306;49.942;11.570;2022-09-28T04:58:43;4.37;;;3.90;;
1370;SDS011;14306;49.942;11.570;2022-09-28T05:01:17;4.87;;;3.27;;
1370;SDS011;14306;49.942;11.570;2022-09-28T05:03:49;5.30;;;3.57;;
1370;SDS011;14306;49.942;11.570;2022-09-28T05:06:18;5.80;;;3.27;;
1370;SDS011;14306;49.942;11.570;2022-09-28T05:08:47;5.57;;;4.07;;
1370;SDS011;14306;49.942;11.570;2022-09-28T05:11:15;9.57;;;3.20;;
1370;SDS011;14306;49.942;11.570;2022-09-28T05:13:45;9.93;;;3.40;;
1370;SDS011;14306;49.942;11.570;2022-09-28T05:16:14;4.83;;;3.30;;
1370;SDS011;14306;49.942;11.570;2022-09-28T05:18:42;3.97;;;3.30;;
1370;SDS011;14306;49.942;11.570;2022-09-28T05:21:10;4.90;;;3.43;;
1370;SDS011;14306;49.942;11.570;2022-09-28T05:23:44;2.83;;;2.63;;
1370;SDS011;14306;49.942;11.570;2022-09-28T05:26:12;5.17;;;3.13;;
1370;SDS011;14306;49.942;11.570;2022-09-28T05:28:40;5.60;;;3.27;;
1370;SDS011;14306;49.942;11.570;2022-09-28T05:31:10;3.83;;;2.90;;
1370;SDS011;14306;49.942;11.570;2022-09-28T05:33:38;7.17;;;3.70;;
1370;SDS011;14306;49.942;11.570;2022-09-28T05:36:07;3.40;;;3.17;;
1370;SDS011;14306;49.942;11.570;2022-09-28T05:38:36;5.73;;;2.80;;
1370;SDS011;14306;49.942;11.570;2022-09-28T05:41:06;7.30;;;3.00;;
1370;SDS011;14306;49.942;11.570;2022-09-28T05:43:34;4.57;;;2.10;;
1370;SDS011;14306;49.942;11.570;2022-09-28T05:46:04;4.93;;;2.47;;
1370;SDS011;14306;49.942;11.570;2022-09-28T05:48:32;3.67;;;2.40;;
1370;SDS011;14306;49.942;11.570;2022-09-28T05:51:00;3.93;;;2.50;;
1370;SDS011;14306;49.942;11.570;2022-09-28T05:53:28;4.37;;;3.43;;
1370;SDS011;14306;49.942;11.570;2022-09-28T05:55:56;3.10;;;2.10;;
1370;SDS011;14306;49.942;11.570;2022-09-28T05:58:26;4.30;;;2.70;;
1370;SDS011;14306;49.942;11.570;2022-09-28T06:00:54;4.77;;;3.00;;
1370;SDS011;14306;49.942;11.570;2022-09-28T06:03:22;5.03;;;2.37;;
1370;SDS011;14306;49.942;11.570;2022-09-28T06:05:50;2.60;;;2.10;;
1370;SDS011;14306;49.942;11.570;2022-09-28T06:08:18;3.80;;;1.83;;
1370;SDS011;14306;49.942;11.570;2022-09-28T06:10:47;2.83;;;2.17;;
1370;SDS011;14306;49.942;11.570;2022-09-28T06:13:14;3.10;;;1.83;;
1370;SDS011;14306;49.942;11.570;2022-09-28T06:15:44;2.63;;;2.20;;
1370;SDS011;14306;49.942;11.570;2022-09-28T06:18:12;2.90;;;2.17;;
1370;SDS011;14306;49.942;11.570;2022-09-28T06:20:43;3.27;;;2.13;;
1370;SDS011;14306;49.942;11.570;2022-09-28T06:23:11;2.53;;;1.97;;
1370;SDS011;14306;49.942;11.570;2022-09-28T06:25:39;3.00;;;2.33;;
1370;SDS011;14306;49.942;11.570;2022-09-28T06:28:08;2.00;;;1.60;;
1370;SDS011;14306;49.942;11.570;2022-09-28T06:30:37;2.57;;;1.70;;
1370;SDS011;14306;49.942;11.570;2022-09-28T06:33:10;15.20;;;2.90;;
1370;SDS011;14306;49.942;11.570;2022-09-28T06:36:42;5.25;;;1.23;;
1370;SDS011;14306;49.942;11.570;2022-09-28T06:44:14;3.80;;;1.30;;
1370;SDS011;14306;49.942;11.570;2022-09-28T06:46:43;4.37;;;1.57;;
1370;SDS011;14306;49.942;11.570;2022-09-28T06:49:11;4.47;;;1.20;;
1370;SDS011;14306;49.942;11.570;2022-09-28T06:51:44;6.10;;;2.70;;
1370;SDS011;14306;49.942;11.570;2022-09-28T06:54:13;3.70;;;1.77;;
1370;SDS011;14306;49.942;11.570;2022-09-28T06:56:41;8.23;;;1.93;;
1370;SDS011;14306;49.942;11.570;2022-09-28T06:59:09;6.83;;;3.07;;
1370;SDS011;14306;49.942;11.570;2022-09-28T07:01:41;3.23;;;1.23;;
1370;SDS011;14306;49.942;11.570;2022-09-28T07:04:09;2.43;;;1.30;;
1370;SDS011;14306;49.942;11.570;2022-09-28T07:06:37;15.73;;;1.77;;
1370;SDS011;14306;49.942;11.570;2022-09-28T07:09:05;1.70;;;1.10;;
1370;SDS011;14306;49.942;11.570;2022-09-28T07:11:53;2.40;;;1.10;;
1370;SDS011;14306;49.942;11.570;2022-09-28T07:14:21;2.10;;;1.00;;
1370;SDS011;14306;49.942;11.570;2022-09-28T07:17:11;2.83;;;0.80;;
1370;SDS011;14306;49.942;11.570;2022-09-28T07:19:40;1.50;;;1.03;;
1370;SDS011;14306;49.942;11.570;2022-09-28T07:22:08;3.13;;;0.90;;
1370;SDS011;14306;49.942;11.570;2022-09-28T07:24:44;2.40;;;0.87;;
1370;SDS011;14306;49.942;11.570;2022-09-28T07:27:12;1.23;;;0.80;;
1370;SDS011;14306;49.942;11.570;2022-09-28T07:29:40;1.13;;;0.80;;
1370;SDS011;14306;49.942;11.570;2022-09-28T07:32:08;1.87;;;0.80;;
1370;SDS011;14306;49.942;11.570;2022-09-28T07:34:38;2.10;;;1.00;;
1370;SDS011;14306;49.942;11.570;2022-09-28T07:37:09;2.10;;;0.80;;
1370;SDS011;14306;49.942;11.570;2022-09-28T07:39:38;1.30;;;0.70;;
1370;SDS011;14306;49.942;11.570;2022-09-28T07:42:19;3.23;;;0.83;;
1370;SDS011;14306;49.942;11.570;2022-09-28T07:44:48;1.43;;;0.90;;
1370;SDS011;14306;49.942;11.570;2022-09-28T07:47:17;2.50;;;1.00;;
1370;SDS011;14306;49.942;11.570;2022-09-28T07:49:57;3.30;;;1.10;;
1370;SDS011;14306;49.942;11.570;2022-09-28T07:52:25;2.83;;;0.90;;
1370;SDS011;14306;49.942;11.570;2022-09-28T07:54:55;1.97;;;0.70;;
1370;SDS011;14306;49.942;11.570;2022-09-28T07:57:26;1.10;;;0.80;;
1370;SDS011;14306;49.942;11.570;2022-09-28T07:59:55;3.23;;;0.80;;
1370;SDS011;14306;49.942;11.570;2022-09-28T08:02:25;3.43;;;0.77;;
1370;SDS011;14306;49.942;11.570;2022-09-28T08:04:53;1.50;;;0.80;;
1370;SDS011;14306;49.942;11.570;2022-09-28T08:07:21;3.13;;;0.90;;
1370;SDS011;14306;49.942;11.570;2022-09-28T08:09:51;1.10;;;1.00;;
1370;SDS011;14306;49.942;11.570;2022-09-28T08:12:19;5.83;;;0.80;;
1370;SDS011;14306;49.942;11.570;2022-09-28T08:14:47;1.30;;;0.60;;
1370;SDS011;14306;49.942;11.570;2022-09-28T08:17:17;2.33;;;0.70;;
1370;SDS011;14306;49.942;11.570;2022-09-28T08:19:46;1.00;;;0.67;;
1370;SDS011;14306;49.942;11.570;2022-09-28T08:22:32;1.27;;;0.60;;
1370;SDS011;14306;49.942;11.570;2022-09-28T08:25:00;1.43;;;0.70;;
1370;SDS011;14306;49.942;11.570;2022-09-28T08:27:27;0.70;;;0.50;;
1370;SDS011;14306;49.942;11.570;2022-09-28T08:29:57;0.77;;;0.63;;
1370;SDS011;14306;49.942;11.570;2022-09-28T08:32:24;3.43;;;0.67;;
1370;SDS011;14306;49.942;11.570;2022-09-28T08:34:54;0.50;;;0.50;;
1370;SDS011;14306;49.942;11.570;2022-09-28T08:37:22;1.43;;;0.90;;
1370;SDS011;14306;49.942;11.570;2022-09-28T08:39:50;0.90;;;0.50;;
1370;SDS011;14306;49.942;11.570;2022-09-28T08:42:24;2.27;;;0.60;;
1370;SDS011;14306;49.942;11.570;2022-09-28T08:45:04;0.50;;;0.50;;
1370;SDS011;14306;49.942;11.570;2022-09-28T08:47:38;1.00;;;0.60;;
1370;SDS011;14306;49.942;11.570;2022-09-28T08:50:37;1.13;;;0.70;;
1370;SDS011;14306;49.942;11.570;2022-09-28T08:56:01;0.80;;;0.50;;
1370;SDS011;14306;49.942;11.570;2022-09-28T08:58:32;1.80;;;0.60;;
1370;SDS011;14306;49.942;11.570;2022-09-28T09:01:04;0.77;;;0.60;;
1370;SDS011;14306;49.942;11.570;2022-09-28T09:03:42;0.93;;;0.60;;
1370;SDS011;14306;49.942;11.570;2022-09-28T09:06:16;0.50;;;0.50;;
1370;SDS011;14306;49.942;11.570;2022-09-28T09:08:54;0.60;;;0.50;;
1370;SDS011;14306;49.942;11.570;2022-09-28T09:11:40;0.70;;;0.60;;
1370;SDS011;14306;49.942;11.570;2022-09-28T09:17:28;1.00;;;0.50;;
1370;SDS011;14306;49.942;11.570;2022-09-28T09:20:10;2.93;;;0.80;;
1370;SDS011;14306;49.942;11.570;2022-09-28T09:22:50;2.00;;;0.70;;
1370;SDS011;14306;49.942;11.570;2022-09-28T09:25:27;1.47;;;1.00;;
1370;SDS011;14306;49.942;11.570;2022-09-28T09:28:15;1.67;;;0.90;;
1370;SDS011;14306;49.942;11.570;2022-09-28T09:31:07;1.57;;;0.80;;
1370;SDS011;14306;49.942;11.570;2022-09-28T09:33:53;2.20;;;0.90;;
1370;SDS011;14306;49.942;11.570;2022-09-28T09:36:44;2.10;;;1.37;;
1370;SDS011;14306;49.942;11.570;2022-09-28T09:39:30;5.70;;;1.30;;
1370;SDS011;14306;49.942;11.570;2022-09-28T09:42:14;4.83;;;1.10;;
1370;SDS011;14306;49.942;11.570;2022-09-28T09:45:08;3.73;;;1.00;;
1370;SDS011;14306;49.942;11.570;2022-09-28T09:47:55;3.77;;;2.17;;
1370;SDS011;14306;49.942;11.570;2022-09-28T09:50:28;1.60;;;1.50;;
1370;SDS011;14306;49.942;11.570;2022-09-28T09:53:01;1.63;;;1.10;;
1370;SDS011;14306;49.942;11.570;2022-09-28T09:55:37;2.20;;;0.97;;
1370;SDS011;14306;49.942;11.570;2022-09-28T09:58:09;2.30;;;1.20;;
1370;SDS011;14306;49.942;11.570;2022-09-28T10:00:43;1.90;;;1.23;;
1370;SDS011;14306;49.942;11.570;2022-09-28T10:03:16;1.20;;;1.10;;
1370;SDS011;14306;49.942;11.570;2022-09-28T10:05:50;1.50;;;1.03;;
1370;SDS011;14306;49.942;11.570;2022-09-28T10:08:24;4.20;;;1.37;;
1370;SDS011;14306;49.942;11.570;2022-09-28T10:11:01;0.90;;;0.90;;
1370;SDS011;14306;49.942;11.570;2022-09-28T10:13:35;1.47;;;0.93;;
1370;SDS011;14306;49.942;11.570;2022-09-28T10:16:03;2.97;;;1.13;;
1370;SDS011;14306;49.942;11.570;2022-09-28T10:18:32;2.17;;;1.27;;
1370;SDS011;14306;49.942;11.570;2022-09-28T10:21:01;5.60;;;1.17;;
1370;SDS011;14306;49.942;11.570;2022-09-28T10:23:30;2.60;;;1.10;;
1370;SDS011;14306;49.942;11.570;2022-09-28T10:26:03;2.70;;;1.00;;
1370;SDS011;14306;49.942;11.570;2022-09-28T10:28:38;2.27;;;1.30;;
1370;SDS011;14306;49.942;11.570;2022-09-28T10:34:05;1.40;;;1.30;;
1370;SDS011;14306;49.942;11.570;2022-09-28T10:36:41;1.43;;;1.30;;
1370;SDS011;14306;49.942;11.570;2022-09-28T10:39:22;1.50;;;1.30;;
1370;SDS011;14306;49.942;11.570;2022-09-28T10:41:59;2.77;;;1.10;;
1370;SDS011;14306;49.942;11.570;2022-09-28T10:44:30;2.40;;;1.40;;
1370;SDS011;14306;49.942;11.570;2022-09-28T10:47:00;4.37;;;1.40;;
1370;SDS011;14306;49.942;11.570;2022-09-28T10:49:30;2.33;;;1.30;;
1370;SDS011;14306;49.942;11.570;2022-09-28T10:54:59;1.40;;;1.30;;
1370;SDS011;14306;49.942;11.570;2022-09-28T10:57:32;1.50;;;1.30;;
1370;SDS011;14306;49.942;11.570;2022-09-28T11:00:02;4.23;;;2.00;;
1370;SDS011;14306;49.942;11.570;2022-09-28T11:02:33;2.70;;;1.70;;
1370;SDS011;14306;49.942;11.570;2022-09-28T11:05:04;1.77;;;1.63;;
1370;SDS011;14306;49.942;11.570;2022-09-28T11:07:33;1.43;;;1.30;;
1370;SDS011;14306;49.942;11.570;2022-09-28T11:10:17;3.13;;;1.50;;
1370;SDS011;14306;49.942;11.570;2022-09-28T11:12:48;5.67;;;1.77;;
1370;SDS011;14306;49.942;11.570;2022-09-28T11:15:21;4.10;;;1.53;;
1370;SDS011;14306;49.942;11.570;2022-09-28T11:17:53;1.70;;;1.30;;
1370;SDS011;14306;49.942;11.570;2022-09-28T11:20:29;1.63;;;1.47;;
1370;SDS011;14306;49.942;11.570;2022-09-28T11:23:14;1.80;;;1.70;;
1370;SDS011;14306;49.942;11.570;2022-09-28T11:25:58;2.20;;;1.37;;
1370;SDS011;14306;49.942;11.570;2022-09-28T11:28:32;3.53;;;1.30;;
1370;SDS011;14306;49.942;11.570;2022-09-28T11:31:02;1.53;;;1.13;;
1370;SDS011;14306;49.942;11.570;2022-09-28T11:33:33;1.43;;;1.33;;
1370;SDS011;14306;49.942;11.570;2022-09-28T11:36:07;2.40;;;1.73;;
1370;SDS011;14306;49.942;11.570;2022-09-28T11:38:45;3.27;;;1.87;;
1370;SDS011;14306;49.942;11.570;2022-09-28T11:41:36;5.40;;;2.07;;
1370;SDS011;14306;49.942;11.570;2022-09-28T11:44:25;2.07;;;1.70;;
1370;SDS011;14306;49.942;11.570;2022-09-28T11:50:13;2.03;;;1.53;;
1370;SDS011;14306;49.942;11.570;2022-09-28T11:52:52;3.47;;;1.93;;
1370;SDS011;14306;49.942;11.570;2022-09-28T11:55:26;2.67;;;2.33;;
1370;SDS011;14306;49.942;11.570;2022-09-28T11:58:02;3.00;;;2.33;;
1370;SDS011;14306;49.942;11.570;2022-09-28T12:00:39;2.53;;;2.13;;
1370;SDS011;14306;49.942;11.570;2022-09-28T12:03:13;2.67;;;2.10;;
1370;SDS011;14306;49.942;11.570;2022-09-28T12:05:46;4.60;;;2.43;;
1370;SDS011;14306;49.942;11.570;2022-09-28T12:08:18;2.83;;;2.00;;
1370;SDS011;14306;49.942;11.570;2022-09-28T12:10:52;3.00;;;1.50;;
1370;SDS011;14306;49.942;11.570;2022-09-28T12:13:25;3.13;;;1.70;;
1370;SDS011;14306;49.942;11.570;2022-09-28T12:15:57;4.47;;;1.93;;
1370;SDS011;14306;49.942;11.570;2022-09-28T12:18:48;3.00;;;1.93;;
1370;SDS011;14306;49.942;11.570;2022-09-28T12:21:25;3.40;;;1.73;;
1370;SDS011;14306;49.942;11.570;2022-09-28T12:24:01;2.97;;;1.50;;
1370;SDS011;14306;49.942;11.570;2022-09-28T12:26:35;3.37;;;1.37;;
1370;SDS011;14306;49.942;11.570;2022-09-28T12:29:09;11.13;;;2.70;;
1370;SDS011;14306;49.942;11.570;2022-09-28T12:31:48;3.10;;;1.13;;
1370;SDS011;14306;49.942;11.570;2022-09-28T12:34:22;1.47;;;1.27;;
1370;SDS011;14306;49.942;11.570;2022-09-28T12:36:53;3.13;;;1.50;;
1370;SDS011;14306;49.942;11.570;2022-09-28T12:39:36;2.70;;;1.63;;
1370;SDS011;14306;49.942;11.570;2022-09-28T12:42:27;2.87;;;1.63;;
1370;SDS011;14306;49.942;11.570;2022-09-28T12:45:24;1.50;;;1.20;;
1370;SDS011;14306;49.942;11.570;2022-09-28T12:48:34;3.90;;;1.70;;
1370;SDS011;14306;49.942;11.570;2022-09-28T12:51:42;2.03;;;1.20;;
1370;SDS011;14306;49.942;11.570;2022-09-28T12:54:18;3.00;;;1.60;;
1370;SDS011;14306;49.942;11.570;2022-09-28T12:57:22;2.00;;;1.50;;
1370;SDS011;14306;49.942;11.570;2022-09-28T13:00:04;2.93;;;1.20;;
1370;SDS011;14306;49.942;11.570;2022-09-28T13:05:39;1.97;;;1.10;;
1370;SDS011;14306;49.942;11.570;2022-09-28T13:08:30;3.70;;;1.27;;
1370;SDS011;14306;49.942;11.570;2022-09-28T13:11:11;13.93;;;1.60;;
1370;SDS011;14306;49.942;11.570;2022-09-28T13:13:47;2.87;;;1.00;;
1370;SDS011;14306;49.942;11.570;2022-09-28T13:16:26;1.90;;;1.23;;
1370;SDS011;14306;49.942;11.570;2022-09-28T13:19:02;3.60;;;1.33;;
1370;SDS011;14306;49.942;11.570;2022-09-28T13:21:40;0.90;;;0.77;;
1370;SDS011;14306;49.942;11.570;2022-09-28T13:24:14;1.73;;;1.00;;
1370;SDS011;14306;49.942;11.570;2022-09-28T13:27:00;2.97;;;1.30;;
1370;SDS011;14306;49.942;11.570;2022-09-28T13:29:33;1.33;;;1.03;;
1370;SDS011;14306;49.942;11.570;2022-09-28T13:32:02;1.47;;;1.10;;
1370;SDS011;14306;49.942;11.570;2022-09-28T13:34:31;2.60;;;1.40;;
1370;SDS011;14306;49.942;11.570;2022-09-28T13:37:17;1.47;;;0.90;;
1370;SDS011;14306;49.942;11.570;2022-09-28T13:39:47;1.17;;;0.90;;
1370;SDS011;14306;49.942;11.570;2022-09-28T13:42:27;1.03;;;0.80;;
1370;SDS011;14306;49.942;11.570;2022-09-28T13:45:21;2.90;;;1.00;;
1370;SDS011;14306;49.942;11.570;2022-09-28T13:47:59;2.77;;;0.80;;
1370;SDS011;14306;49.942;11.570;2022-09-28T13:50:44;1.40;;;1.00;;
1370;SDS011;14306;49.942;11.570;2022-09-28T13:53:38;0.97;;;0.80;;
1370;SDS011;14306;49.942;11.570;2022-09-28T13:56:26;1.27;;;0.80;;
1370;SDS011;14306;49.942;11.570;2022-09-28T13:59:02;1.70;;;0.90;;
1370;SDS011;14306;49.942;11.570;2022-09-28T14:01:41;2.77;;;1.30;;
1370;SDS011;14306;49.942;11.570;2022-09-28T14:04:17;2.37;;;1.10;;
1370;SDS011;14306;49.942;11.570;2022-09-28T14:06:48;1.67;;;1.07;;
1370;SDS011;14306;49.942;11.570;2022-09-28T14:09:23;2.87;;;1.10;;
1370;SDS011;14306;49.942;11.570;2022-09-28T14:11:54;1.80;;;0.87;;
1370;SDS011;14306;49.942;11.570;2022-09-28T14:14:28;1.33;;;1.00;;
1370;SDS011;14306;49.942;11.570;2022-09-28T14:20:15;1.87;;;0.80;;
1370;SDS011;14306;49.942;11.570;2022-09-28T14:22:50;3.70;;;1.10;;
1370;SDS011;14306;49.942;11.570;2022-09-28T14:25:31;3.93;;;1.03;;
1370;SDS011;14306;49.942;11.570;2022-09-28T14:28:05;3.27;;;1.10;;
1370;SDS011;14306;49.942;11.570;2022-09-28T14:30:48;2.43;;;1.10;;
1370;SDS011;14306;49.942;11.570;2022-09-28T14:33:23;1.00;;;0.90;;
1370;SDS011;14306;49.942;11.570;2022-09-28T14:35:54;5.43;;;0.90;;
1370;SDS011;14306;49.942;11.570;2022-09-28T14:38:25;1.10;;;1.00;;
1370;SDS011;14306;49.942;11.570;2022-09-28T14:41:28;4.80;;;1.30;;
1370;SDS011;14306;49.942;11.570;2022-09-28T14:44:00;0.97;;;0.90;;
1370;SDS011;14306;49.942;11.570;2022-09-28T14:46:39;2.30;;;0.90;;
1370;SDS011;14306;49.942;11.570;2022-09-28T14:55:10;0.93;;;0.70;;
1370;SDS011;14306;49.942;11.570;2022-09-28T14:57:41;1.77;;;0.80;;
1370;SDS011;14306;49.942;11.570;2022-09-28T15:00:17;1.80;;;1.13;;
1370;SDS011;14306;49.942;11.570;2022-09-28T15:02:47;0.93;;;0.80;;
1370;SDS011;14306;49.942;11.570;2022-09-28T15:05:18;1.40;;;0.90;;
1370;SDS011;14306;49.942;11.570;2022-09-28T15:07:50;2.30;;;0.80;;
1370;SDS011;14306;49.942;11.570;2022-09-28T15:10:23;1.77;;;0.87;;
1370;SDS011;14306;49.942;11.570;2022-09-28T15:12:58;2.13;;;0.80;;
1370;SDS011;14306;49.942;11.570;2022-09-28T15:15:29;1.90;;;1.00;;
1370;SDS011;14306;49.942;11.570;2022-09-28T15:18:06;5.67;;;1.00;;
1370;SDS011;14306;49.942;11.570;2022-09-28T15:20:47;1.00;;;0.90;;
1370;SDS011;14306;49.942;11.570;2022-09-28T15:23:25;2.67;;;1.03;;
1370;SDS011;14306;49.942;11.570;2022-09-28T15:26:00;1.73;;;0.83;;
1370;SDS011;14306;49.942;11.570;2022-09-28T15:28:31;1.87;;;1.00;;
1370;SDS011;14306;49.942;11.570;2022-09-28T15:31:01;1.00;;;0.70;;
1370;SDS011;14306;49.942;11.570;2022-09-28T15:33:31;0.93;;;0.73;;
1370;SDS011;14306;49.942;11.570;2022-09-28T15:36:18;2.17;;;0.90;;
1370;SDS011;14306;49.942;11.570;2022-09-28T15:38:50;1.10;;;0.90;;
1370;SDS011;14306;49.942;11.570;2022-09-28T15:41:22;2.33;;;1.00;;
1370;SDS011;14306;49.942;11.570;2022-09-28T15:44:04;2.03;;;1.00;;
1370;SDS011;14306;49.942;11.570;2022-09-28T15:46:40;1.70;;;1.13;;
1370;SDS011;14306;49.942;11.570;2022-09-28T15:49:18;2.77;;;1.73;;
1370;SDS011;14306;49.942;11.570;2022-09-28T15:51:51;4.30;;;1.43;;
1370;SDS011;14306;49.942;11.570;2022-09-28T15:54:22;2.33;;;1.60;;
1370;SDS011;14306;49.942;11.570;2022-09-28T15:56:53;2.10;;;1.43;;
1370;SDS011;14306;49.942;11.570;2022-09-28T15:59:28;2.93;;;1.50;;
1370;SDS011;14306;49.942;11.570;2022-09-28T16:02:00;2.63;;;1.10;;
1370;SDS011;14306;49.942;11.570;2022-09-28T16:04:42;5.00;;;1.47;;
1370;SDS011;14306;49.942;11.570;2022-09-28T16:07:16;2.53;;;1.10;;
1370;SDS011;14306;49.942;11.570;2022-09-28T16:09:58;3.13;;;1.20;;
1370;SDS011;14306;49.942;11.570;2022-09-28T16:12:29;2.33;;;1.40;;